LGRX/GPA METAR and TAF weather

Enter ICAO airport designator
Station Type Date Time Source
LGRX METAR 2020/09/20 01:50 UTC NOAA

LGRX 200150Z VRB03KT 9999 FEW025 21/13 Q1014


Station Type Date Time Source
LGRX Decoded METAR 2020/09/20 01:50 UTC NOAA

Araxos Airport , Greece (LGRX) 38-09N 021-25E 12M
Sep 19, 2020 - 09:50 PM EDT / 2020.09.20 0150 UTC
Wind: Variable at 3 MPH (3 KT):0
Visibility: greater than 7 mile(s):0
Sky conditions: mostly clear
Temperature: 69 F (21 C)
Dew Point: 55 F (13 C)
Relative Humidity: 60%
Pressure (altimeter): 29.94 in. Hg (1014 hPa)
ob: LGRX 200150Z VRB03KT 9999 FEW025 21/13 Q1014
cycle: 2

Station Type Date Time Source
LGRX TAF 2020/03/18 09:39 UTC NOAA

TAF LGRX 180800Z 1809/1821 33006KT 9999 FEW030
BECMG 1816/1818 07010KT

Example: see airport list